Route Details

Aircraft Information
Group: North America Fleet
Types: B738, B752, B762, B763
Route Data
Distance: 277nm
Duration: 1h 30m
Origin METAR: KCVG 171052Z 35005KT 8SM CLR 17/M01 A3003 RMK AO2 SLP161 T01671011
Dest. METAR: KRFD 171054Z 00000KT 10SM FEW250 13/11 A3015 RMK AO2 SLP207 T01330111
Freight Data
(for Aug 18, 2022)
Load Factor:
61%
Manifested Cargo: 49,960lbs
Financial History
Total Freight: 314,316lbs
Average Load: 0lbs/flt
Fuel Used: 42,157lbs
Avg. Fuel Used: 0lbs/flt
Fuel Expense: $22,585
Avg. Fuel Expense: $0
Avg. Fuel Cost: $0/lbs
Total Gross Income: $773,217
Pilot Pay: $536
Total Expenses: $119,390
Total Revenue: $630,363
Average Revenue: $0

Capitol Logistics 339




KCVG
Cincinnati/Northern Kentucky International Airport
Covington, Kentucky
KRFD
Chicago/Rockford International Airport
Rockford, Illinois

Activity Log

Date Flight Route Aircraft Duration
07/19/2022 CPX339 Not Available B752 1h 13m
07/02/2022 CPX297 LOVEY6 LOVEY VHP JOT B762 0h 55m
05/07/2022 CPX297 LOVEY6 CADIZ JOT B752 1h 05m
03/28/2022 CPX297 JBNCH5 MIE NUKIE JOT B763 1h 19m